Springfield, IL (62715)

11:00 AM CST on November 28, 2014 (GMT -0600)
Northgate Subdivision | Change Station
CLOSE
Current Station
Personal Weather Station
Location: Springfield, IL
Elevation: 590 ft
Nearby Weather Stations

Elev 590 ft 39.83 °N, 89.61 °W | Updated 13 seconds ago

Clear
Clear
37.8 °F
Feels Like 34 °F
N
5.1
Wind Variable Wind from South
Gusts 16.1 mph

Today
High -- | Low -- °F
--% Chance of Precip.
Yesterday
High -- | Low -- °F
Precip. -- in
6:57 AM 4:35 PM
Waxing Crescent, 42% visible
Pressure 30.16 in
Visibility 10.0 miles
Clouds Clear
Windchill 34 °F
Dew Point 30 °F
Humidity 74%
Rainfall 0.02 in
Snow Depth Not available.
UV 3 out of 12
Pollen .10 out of 12
Air Quality Not available.
Flu Activity Not available.
METAR KSPI 281652Z 16018G25KT 10SM CLR 01/M03 A3013 RMK AO2 SLP211 T00061028

More Conditions Fewer Conditions

Pressure 30.16 in
Visibility 10.0 miles
Clouds Clear
Windchill 34 °F
Dew Point 30 °F
Humidity 74%
Rainfall 0.02 in
Snow Depth Not available.
UV 3 out of 12
Pollen .10 out of 12
Air Quality Not available.
Flu Activity Not available.
METAR KSPI 281652Z 16018G25KT 10SM CLR 01/M03 A3013 RMK AO2 SLP211 T00061028

More Conditions Fewer Conditions

10-Day Weather Forecast

Almanac

Astronomy

Nov. 28, 2014 Rise Set
Actual Time
Civil Twilight
Nautical Twilight
Astronomical Twilight
Moon
Length of Visible Light
Length of Day
Tomorrow will be .
, % of the Moon is Illuminated

Today's Extremes

State Highs State Lows

Community

WunderPhotos

Upload Photos

1,774,238 photos uploaded!

WunderBlogs® & News

Nearby

Air Quality

  Air Quality AQ Index Pollutant
Not available.

Snow Depth

Station Depth Elevation

Earthquake Activity

City Distance Mag. Time & Date
Minimum magnitude displayed is 2.5.

Coastal Water Temperatures

Place Temperature

Nearby Weather Stations